sensor_id;sensor_type;location;lat;lon;timestamp;pressure;altitude;pressure_sealevel;temperature;humidity
43281;BME280;62175;49.416;8.690;2022-10-17T00:01:06;100926.96;;;19.01;67.34
43281;BME280;62175;49.416;8.690;2022-10-17T00:03:34;100929.45;;;19.02;66.46
43281;BME280;62175;49.416;8.690;2022-10-17T00:06:05;100924.39;;;18.98;69.44
43281;BME280;62175;49.416;8.690;2022-10-17T00:08:32;100925.60;;;19.13;67.71
43281;BME280;62175;49.416;8.690;2022-10-17T00:11:01;100927.92;;;19.30;67.19
43281;BME280;62175;49.416;8.690;2022-10-17T00:13:30;100932.25;;;18.85;67.55
43281;BME280;62175;49.416;8.690;2022-10-17T00:15:58;100929.14;;;19.35;67.57
43281;BME280;62175;49.416;8.690;2022-10-17T00:18:25;100931.98;;;18.73;68.47
43281;BME280;62175;49.416;8.690;2022-10-17T00:20:56;100938.06;;;19.00;67.49
43281;BME280;62175;49.416;8.690;2022-10-17T00:23:23;100937.46;;;19.33;67.70
43281;BME280;62175;49.416;8.690;2022-10-17T00:26:20;100940.09;;;19.11;66.94
43281;BME280;62175;49.416;8.690;2022-10-17T00:28:49;100934.49;;;18.82;67.18
43281;BME280;62175;49.416;8.690;2022-10-17T00:31:32;100931.02;;;19.12;67.21
43281;BME280;62175;49.416;8.690;2022-10-17T00:34:01;100936.53;;;18.99;66.03
43281;BME280;62175;49.416;8.690;2022-10-17T00:36:28;100933.03;;;18.87;67.34
43281;BME280;62175;49.416;8.690;2022-10-17T00:38:57;100939.15;;;19.06;67.06
43281;BME280;62175;49.416;8.690;2022-10-17T00:41:28;100938.32;;;18.69;66.76
43281;BME280;62175;49.416;8.690;2022-10-17T00:44:02;100944.27;;;18.97;66.20
43281;BME280;62175;49.416;8.690;2022-10-17T00:46:31;100941.03;;;18.58;67.80
43281;BME280;62175;49.416;8.690;2022-10-17T00:49:02;100940.75;;;18.73;67.60
43281;BME280;62175;49.416;8.690;2022-10-17T00:51:35;100945.11;;;18.70;69.17
43281;BME280;62175;49.416;8.690;2022-10-17T00:54:07;100948.96;;;18.96;66.95
43281;BME280;62175;49.416;8.690;2022-10-17T00:56:42;100954.30;;;19.06;67.34
43281;BME280;62175;49.416;8.690;2022-10-17T00:59:22;100959.03;;;18.83;69.36
43281;BME280;62175;49.416;8.690;2022-10-17T01:01:55;100955.18;;;18.80;65.64
43281;BME280;62175;49.416;8.690;2022-10-17T01:04:25;100964.78;;;18.77;66.36
43281;BME280;62175;49.416;8.690;2022-10-17T01:06:52;100964.56;;;18.77;67.10
43281;BME280;62175;49.416;8.690;2022-10-17T01:09:19;100970.11;;;18.97;66.92
43281;BME280;62175;49.416;8.690;2022-10-17T01:11:52;100968.02;;;18.77;66.31
43281;BME280;62175;49.416;8.690;2022-10-17T01:14:28;100969.00;;;18.71;67.16
43281;BME280;62175;49.416;8.690;2022-10-17T01:17:01;100968.13;;;18.83;67.56
43281;BME280;62175;49.416;8.690;2022-10-17T01:19:50;100973.19;;;18.82;66.75
43281;BME280;62175;49.416;8.690;2022-10-17T01:22:24;100969.64;;;18.75;67.19
43281;BME280;62175;49.416;8.690;2022-10-17T01:25:16;100975.60;;;18.73;67.17
43281;BME280;62175;49.416;8.690;2022-10-17T01:27:56;100975.27;;;18.72;66.89
43281;BME280;62175;49.416;8.690;2022-10-17T01:30:47;100978.17;;;18.69;66.71
43281;BME280;62175;49.416;8.690;2022-10-17T01:33:22;100971.88;;;18.53;67.16
43281;BME280;62175;49.416;8.690;2022-10-17T01:35:58;100971.18;;;18.62;67.22
43281;BME280;62175;49.416;8.690;2022-10-17T01:38:31;100965.60;;;18.50;69.06
43281;BME280;62175;49.416;8.690;2022-10-17T01:41:05;100966.47;;;18.50;67.92
43281;BME280;62175;49.416;8.690;2022-10-17T01:43:40;100968.16;;;18.71;68.56
43281;BME280;62175;49.416;8.690;2022-10-17T01:46:16;100966.72;;;18.67;68.55
43281;BME280;62175;49.416;8.690;2022-10-17T01:48:47;100965.41;;;18.80;67.54
43281;BME280;62175;49.416;8.690;2022-10-17T01:51:17;100960.77;;;18.51;67.12
43281;BME280;62175;49.416;8.690;2022-10-17T01:53:51;100962.53;;;18.23;67.15
43281;BME280;62175;49.416;8.690;2022-10-17T01:56:24;100967.13;;;18.53;66.53
43281;BME280;62175;49.416;8.690;2022-10-17T01:58:57;100960.67;;;18.51;66.83
43281;BME280;62175;49.416;8.690;2022-10-17T02:01:28;100958.80;;;18.51;67.49
43281;BME280;62175;49.416;8.690;2022-10-17T02:03:57;100956.95;;;18.41;67.23
43281;BME280;62175;49.416;8.690;2022-10-17T02:06:25;100955.02;;;18.52;67.00
43281;BME280;62175;49.416;8.690;2022-10-17T02:08:52;100959.26;;;18.46;65.87
43281;BME280;62175;49.416;8.690;2022-10-17T02:11:22;100962.01;;;18.45;66.08
43281;BME280;62175;49.416;8.690;2022-10-17T02:14:12;100954.36;;;18.46;66.84
43281;BME280;62175;49.416;8.690;2022-10-17T02:16:53;100955.27;;;18.52;66.81
43281;BME280;62175;49.416;8.690;2022-10-17T02:19:39;100957.66;;;18.36;66.51
43281;BME280;62175;49.416;8.690;2022-10-17T02:22:19;100964.19;;;18.35;66.59
43281;BME280;62175;49.416;8.690;2022-10-17T02:24:54;100961.61;;;18.17;67.86
43281;BME280;62175;49.416;8.690;2022-10-17T02:27:33;100954.65;;;18.32;67.25
43281;BME280;62175;49.416;8.690;2022-10-17T02:30:09;100950.50;;;18.28;67.14
43281;BME280;62175;49.416;8.690;2022-10-17T02:32:46;100957.74;;;18.32;67.00
43281;BME280;62175;49.416;8.690;2022-10-17T02:35:19;100955.66;;;18.52;67.08
43281;BME280;62175;49.416;8.690;2022-10-17T02:37:51;100962.71;;;18.39;66.56
43281;BME280;62175;49.416;8.690;2022-10-17T02:40:23;100958.96;;;18.31;66.65
43281;BME280;62175;49.416;8.690;2022-10-17T02:42:55;100960.06;;;18.26;66.75
43281;BME280;62175;49.416;8.690;2022-10-17T02:45:29;100963.26;;;18.25;67.06
43281;BME280;62175;49.416;8.690;2022-10-17T02:48:00;100965.18;;;18.28;65.49
43281;BME280;62175;49.416;8.690;2022-10-17T02:50:41;100964.65;;;18.06;66.38
43281;BME280;62175;49.416;8.690;2022-10-17T02:53:14;100966.05;;;18.30;66.51
43281;BME280;62175;49.416;8.690;2022-10-17T02:55:49;100970.93;;;18.29;67.01
43281;BME280;62175;49.416;8.690;2022-10-17T02:58:20;100964.34;;;18.03;66.87
43281;BME280;62175;49.416;8.690;2022-10-17T03:00:51;100970.86;;;18.34;66.15
43281;BME280;62175;49.416;8.690;2022-10-17T03:03:21;100970.04;;;18.61;67.20
43281;BME280;62175;49.416;8.690;2022-10-17T03:05:51;100972.49;;;18.07;66.33
43281;BME280;62175;49.416;8.690;2022-10-17T03:08:20;100974.28;;;18.09;66.27
43281;BME280;62175;49.416;8.690;2022-10-17T03:10:48;100971.62;;;18.15;66.08
43281;BME280;62175;49.416;8.690;2022-10-17T03:13:16;100966.71;;;18.29;67.26
43281;BME280;62175;49.416;8.690;2022-10-17T03:15:44;100964.97;;;18.21;66.74
43281;BME280;62175;49.416;8.690;2022-10-17T03:18:13;100963.20;;;18.23;66.41
43281;BME280;62175;49.416;8.690;2022-10-17T03:20:45;100965.48;;;18.23;65.83
43281;BME280;62175;49.416;8.690;2022-10-17T03:23:12;100968.09;;;18.13;66.06
43281;BME280;62175;49.416;8.690;2022-10-17T03:25:39;100967.33;;;18.12;67.25
43281;BME280;62175;49.416;8.690;2022-10-17T03:28:08;100967.29;;;18.35;66.70
43281;BME280;62175;49.416;8.690;2022-10-17T03:30:37;100973.81;;;18.07;66.29
43281;BME280;62175;49.416;8.690;2022-10-17T03:33:05;100973.07;;;18.60;66.73
43281;BME280;62175;49.416;8.690;2022-10-17T03:35:33;100973.62;;;18.04;66.44
43281;BME280;62175;49.416;8.690;2022-10-17T03:38:01;100975.34;;;18.20;66.87
43281;BME280;62175;49.416;8.690;2022-10-17T03:40:27;100966.44;;;18.18;65.98
43281;BME280;62175;49.416;8.690;2022-10-17T03:42:54;100971.81;;;18.29;66.59
43281;BME280;62175;49.416;8.690;2022-10-17T03:45:21;100966.62;;;18.36;68.62
43281;BME280;62175;49.416;8.690;2022-10-17T03:47:49;100972.08;;;18.39;65.12
43281;BME280;62175;49.416;8.690;2022-10-17T03:50:17;100964.27;;;18.17;65.65
43281;BME280;62175;49.416;8.690;2022-10-17T03:52:46;100968.50;;;18.17;66.99
43281;BME280;62175;49.416;8.690;2022-10-17T03:55:14;100970.50;;;18.01;66.51
43281;BME280;62175;49.416;8.690;2022-10-17T03:57:42;100974.78;;;18.24;65.92
43281;BME280;62175;49.416;8.690;2022-10-17T04:00:11;100976.96;;;18.14;66.37
43281;BME280;62175;49.416;8.690;2022-10-17T04:02:38;100976.85;;;18.27;69.35
43281;BME280;62175;49.416;8.690;2022-10-17T04:05:07;100986.02;;;18.34;66.00
43281;BME280;62175;49.416;8.690;2022-10-17T04:07:35;100989.17;;;18.30;65.51
43281;BME280;62175;49.416;8.690;2022-10-17T04:10:03;100992.98;;;18.16;65.79
43281;BME280;62175;49.416;8.690;2022-10-17T04:12:34;100992.57;;;18.50;67.56
43281;BME280;62175;49.416;8.690;2022-10-17T04:15:03;100997.99;;;18.53;65.66
43281;BME280;62175;49.416;8.690;2022-10-17T04:17:34;100996.35;;;18.36;65.40
43281;BME280;62175;49.416;8.690;2022-10-17T04:20:05;100995.70;;;18.24;65.86
43281;BME280;62175;49.416;8.690;2022-10-17T04:22:32;100995.07;;;18.17;65.38
43281;BME280;62175;49.416;8.690;2022-10-17T04:25:00;100996.15;;;18.32;66.22
43281;BME280;62175;49.416;8.690;2022-10-17T04:27:29;100997.94;;;18.20;66.07
43281;BME280;62175;49.416;8.690;2022-10-17T04:29:58;101001.36;;;18.42;65.98
43281;BME280;62175;49.416;8.690;2022-10-17T04:32:25;101005.81;;;18.11;66.94
43281;BME280;62175;49.416;8.690;2022-10-17T04:34:54;101001.55;;;18.10;66.12
43281;BME280;62175;49.416;8.690;2022-10-17T04:37:21;101007.23;;;18.33;65.21
43281;BME280;62175;49.416;8.690;2022-10-17T04:39:53;101008.39;;;18.11;66.06
43281;BME280;62175;49.416;8.690;2022-10-17T04:42:36;101009.91;;;18.34;65.53
43281;BME280;62175;49.416;8.690;2022-10-17T04:45:09;101009.15;;;18.12;68.21
43281;BME280;62175;49.416;8.690;2022-10-17T04:47:49;101014.80;;;18.46;67.59
43281;BME280;62175;49.416;8.690;2022-10-17T04:50:18;101008.36;;;18.39;65.35
43281;BME280;62175;49.416;8.690;2022-10-17T04:52:45;101010.33;;;18.34;65.25
43281;BME280;62175;49.416;8.690;2022-10-17T04:55:15;101015.33;;;18.41;64.30
43281;BME280;62175;49.416;8.690;2022-10-17T04:57:44;101011.30;;;18.22;66.17
43281;BME280;62175;49.416;8.690;2022-10-17T05:00:14;101003.85;;;18.34;64.91
43281;BME280;62175;49.416;8.690;2022-10-17T05:02:44;101002.18;;;18.31;64.78
43281;BME280;62175;49.416;8.690;2022-10-17T05:05:12;101003.23;;;18.49;65.59
43281;BME280;62175;49.416;8.690;2022-10-17T05:07:40;101010.26;;;18.29;65.32
43281;BME280;62175;49.416;8.690;2022-10-17T05:10:08;101019.16;;;18.28;66.19
43281;BME280;62175;49.416;8.690;2022-10-17T05:12:35;101021.21;;;18.28;66.13
43281;BME280;62175;49.416;8.690;2022-10-17T05:15:03;101027.08;;;18.22;65.55
43281;BME280;62175;49.416;8.690;2022-10-17T05:17:30;101023.70;;;18.29;64.84
43281;BME280;62175;49.416;8.690;2022-10-17T05:19:57;101020.86;;;18.51;65.24
43281;BME280;62175;49.416;8.690;2022-10-17T05:22:25;101017.27;;;18.11;65.19
43281;BME280;62175;49.416;8.690;2022-10-17T05:24:52;101014.54;;;18.15;65.70
43281;BME280;62175;49.416;8.690;2022-10-17T05:27:20;101010.43;;;18.07;65.99
43281;BME280;62175;49.416;8.690;2022-10-17T05:29:47;101010.98;;;17.97;65.61
43281;BME280;62175;49.416;8.690;2022-10-17T05:32:14;101018.89;;;17.79;65.61
43281;BME280;62175;49.416;8.690;2022-10-17T05:34:47;101021.03;;;17.63;65.62
43281;BME280;62175;49.416;8.690;2022-10-17T05:37:15;101020.41;;;17.93;65.47
43281;BME280;62175;49.416;8.690;2022-10-17T05:39:42;101012.12;;;18.41;66.44
43281;BME280;62175;49.416;8.690;2022-10-17T05:42:09;101012.88;;;17.96;65.56
43281;BME280;62175;49.416;8.690;2022-10-17T05:44:36;101013.39;;;17.78;66.45
43281;BME280;62175;49.416;8.690;2022-10-17T05:47:03;101011.28;;;17.78;65.33
43281;BME280;62175;49.416;8.690;2022-10-17T05:49:30;101015.55;;;17.93;65.68
43281;BME280;62175;49.416;8.690;2022-10-17T05:51:57;101021.42;;;18.36;64.79
43281;BME280;62175;49.416;8.690;2022-10-17T05:54:24;101026.84;;;18.06;66.70
43281;BME280;62175;49.416;8.690;2022-10-17T05:56:52;101024.71;;;18.31;65.25
43281;BME280;62175;49.416;8.690;2022-10-17T05:59:21;101026.90;;;17.82;65.65
43281;BME280;62175;49.416;8.690;2022-10-17T06:01:48;101032.08;;;18.24;67.95
43281;BME280;62175;49.416;8.690;2022-10-17T06:04:15;101035.75;;;17.93;64.37
43281;BME280;62175;49.416;8.690;2022-10-17T06:06:42;101040.07;;;18.54;64.86
43281;BME280;62175;49.416;8.690;2022-10-17T06:09:09;101042.16;;;18.26;68.32
43281;BME280;62175;49.416;8.690;2022-10-17T06:12:48;101043.68;;;18.19;64.78
43281;BME280;62175;49.416;8.690;2022-10-17T06:15:16;101042.17;;;18.16;64.40
43281;BME280;62175;49.416;8.690;2022-10-17T06:17:47;101045.18;;;18.28;65.90
43281;BME280;62175;49.416;8.690;2022-10-17T06:20:14;101045.96;;;18.40;63.23
43281;BME280;62175;49.416;8.690;2022-10-17T06:22:41;101045.35;;;18.24;65.88
43281;BME280;62175;49.416;8.690;2022-10-17T06:25:08;101043.62;;;18.52;64.65
43281;BME280;62175;49.416;8.690;2022-10-17T06:27:36;101047.18;;;18.33;63.95
43281;BME280;62175;49.416;8.690;2022-10-17T06:30:04;101043.61;;;18.43;64.44
43281;BME280;62175;49.416;8.690;2022-10-17T06:32:32;101045.61;;;18.20;64.35
43281;BME280;62175;49.416;8.690;2022-10-17T06:35:01;101043.14;;;18.52;64.78
43281;BME280;62175;49.416;8.690;2022-10-17T06:37:45;101043.87;;;18.45;67.18
43281;BME280;62175;49.416;8.690;2022-10-17T06:40:12;101048.81;;;18.44;64.58
43281;BME280;62175;49.416;8.690;2022-10-17T06:42:41;101055.93;;;18.63;63.99
43281;BME280;62175;49.416;8.690;2022-10-17T06:45:09;101058.43;;;18.64;65.57
43281;BME280;62175;49.416;8.690;2022-10-17T06:47:41;101062.49;;;18.72;63.65
43281;BME280;62175;49.416;8.690;2022-10-17T06:50:09;101065.70;;;18.62;63.18
43281;BME280;62175;49.416;8.690;2022-10-17T06:52:36;101067.04;;;18.61;65.15
43281;BME280;62175;49.416;8.690;2022-10-17T06:55:04;101065.83;;;18.82;63.65
43281;BME280;62175;49.416;8.690;2022-10-17T06:57:31;101067.80;;;18.58;64.35
43281;BME280;62175;49.416;8.690;2022-10-17T06:59:58;101070.85;;;18.67;64.94
43281;BME280;62175;49.416;8.690;2022-10-17T07:02:27;101069.13;;;18.80;64.46
43281;BME280;62175;49.416;8.690;2022-10-17T07:04:56;101069.93;;;18.50;63.44
43281;BME280;62175;49.416;8.690;2022-10-17T07:07:23;101077.46;;;18.83;63.90
43281;BME280;62175;49.416;8.690;2022-10-17T07:09:59;101076.40;;;18.86;64.72
43281;BME280;62175;49.416;8.690;2022-10-17T07:12:27;101071.76;;;18.49;62.95
43281;BME280;62175;49.416;8.690;2022-10-17T07:14:54;101078.90;;;18.93;63.98
43281;BME280;62175;49.416;8.690;2022-10-17T07:17:21;101083.70;;;18.61;64.13
43281;BME280;62175;49.416;8.690;2022-10-17T07:19:48;101089.04;;;18.93;63.32
43281;BME280;62175;49.416;8.690;2022-10-17T07:22:15;101087.79;;;18.34;63.89
43281;BME280;62175;49.416;8.690;2022-10-17T07:24:43;101092.60;;;18.71;63.78
43281;BME280;62175;49.416;8.690;2022-10-17T07:27:09;101099.08;;;18.59;63.30
43281;BME280;62175;49.416;8.690;2022-10-17T07:29:36;101107.62;;;18.51;63.29
43281;BME280;62175;49.416;8.690;2022-10-17T07:32:04;101119.53;;;18.49;64.52
43281;BME280;62175;49.416;8.690;2022-10-17T07:34:32;101126.95;;;18.46;65.06
43281;BME280;62175;49.416;8.690;2022-10-17T07:36:59;101131.75;;;18.67;64.52
43281;BME280;62175;49.416;8.690;2022-10-17T07:39:26;101137.01;;;18.29;64.65
43281;BME280;62175;49.416;8.690;2022-10-17T07:41:54;101143.05;;;18.31;65.09
43281;BME280;62175;49.416;8.690;2022-10-17T07:44:21;101146.63;;;18.31;65.19
43281;BME280;62175;49.416;8.690;2022-10-17T07:46:48;101151.94;;;18.43;65.02
43281;BME280;62175;49.416;8.690;2022-10-17T07:49:15;101153.69;;;18.82;64.06
43281;BME280;62175;49.416;8.690;2022-10-17T07:51:42;101153.46;;;18.46;65.62
43281;BME280;62175;49.416;8.690;2022-10-17T07:54:09;101161.42;;;18.60;65.60
43281;BME280;62175;49.416;8.690;2022-10-17T07:56:36;101160.32;;;18.61;65.71
43281;BME280;62175;49.416;8.690;2022-10-17T07:59:03;101148.96;;;18.52;64.79
43281;BME280;62175;49.416;8.690;2022-10-17T08:01:30;101148.85;;;18.74;64.88
43281;BME280;62175;49.416;8.690;2022-10-17T08:03:57;101154.04;;;18.88;65.23
43281;BME280;62175;49.416;8.690;2022-10-17T08:06:24;101158.22;;;18.88;65.01
43281;BME280;62175;49.416;8.690;2022-10-17T08:08:51;101161.75;;;18.62;64.84
43281;BME280;62175;49.416;8.690;2022-10-17T08:11:18;101157.83;;;18.99;65.20
43281;BME280;62175;49.416;8.690;2022-10-17T08:13:45;101163.88;;;19.05;65.14
43281;BME280;62175;49.416;8.690;2022-10-17T08:16:12;101167.97;;;19.07;65.46
43281;BME280;62175;49.416;8.690;2022-10-17T08:18:40;101171.12;;;19.07;64.35
43281;BME280;62175;49.416;8.690;2022-10-17T08:21:09;101180.82;;;19.12;64.73
43281;BME280;62175;49.416;8.690;2022-10-17T08:23:37;101183.93;;;19.24;64.73
43281;BME280;62175;49.416;8.690;2022-10-17T08:26:06;101186.24;;;19.48;64.20
43281;BME280;62175;49.416;8.690;2022-10-17T08:28:34;101193.43;;;19.18;64.71
43281;BME280;62175;49.416;8.690;2022-10-17T08:31:03;101192.15;;;19.13;64.37
43281;BME280;62175;49.416;8.690;2022-10-17T08:33:30;101183.92;;;18.96;65.06
43281;BME280;62175;49.416;8.690;2022-10-17T08:35:57;101183.88;;;19.03;63.97
43281;BME280;62175;49.416;8.690;2022-10-17T08:38:25;101184.02;;;19.29;65.05
43281;BME280;62175;49.416;8.690;2022-10-17T08:40:55;101181.64;;;18.84;64.61
43281;BME280;62175;49.416;8.690;2022-10-17T08:43:33;101171.53;;;19.40;65.28
43281;BME280;62175;49.416;8.690;2022-10-17T08:46:06;101167.38;;;19.59;64.23
43281;BME280;62175;49.416;8.690;2022-10-17T08:48:39;101171.92;;;19.25;64.30
43281;BME280;62175;49.416;8.690;2022-10-17T08:51:12;101178.38;;;19.25;64.26
43281;BME280;62175;49.416;8.690;2022-10-17T08:53:46;101179.22;;;19.57;63.78
43281;BME280;62175;49.416;8.690;2022-10-17T08:56:18;101177.81;;;19.56;64.53
43281;BME280;62175;49.416;8.690;2022-10-17T08:58:46;101176.27;;;19.40;64.27
43281;BME280;62175;49.416;8.690;2022-10-17T09:01:28;101168.12;;;19.58;64.85
43281;BME280;62175;49.416;8.690;2022-10-17T09:04:08;101162.98;;;19.69;65.30
43281;BME280;62175;49.416;8.690;2022-10-17T09:06:43;101157.97;;;19.19;64.93
43281;BME280;62175;49.416;8.690;2022-10-17T09:09:33;101158.42;;;19.43;65.01
43281;BME280;62175;49.416;8.690;2022-10-17T09:12:14;101162.67;;;19.22;64.99
43281;BME280;62175;49.416;8.690;2022-10-17T09:14:57;101165.02;;;19.76;64.77
43281;BME280;62175;49.416;8.690;2022-10-17T09:17:36;101172.30;;;19.23;64.90
43281;BME280;62175;49.416;8.690;2022-10-17T09:20:10;101188.82;;;19.51;64.47
43281;BME280;62175;49.416;8.690;2022-10-17T09:22:42;101193.53;;;19.18;64.40
43281;BME280;62175;49.416;8.690;2022-10-17T09:25:15;101193.49;;;19.22;64.18
43281;BME280;62175;49.416;8.690;2022-10-17T09:27:46;101191.32;;;19.34;63.68
43281;BME280;62175;49.416;8.690;2022-10-17T09:30:26;101191.42;;;19.44;63.12
43281;BME280;62175;49.416;8.690;2022-10-17T09:32:55;101197.04;;;19.24;63.50
43281;BME280;62175;49.416;8.690;2022-10-17T09:35:22;101189.50;;;19.35;63.57
43281;BME280;62175;49.416;8.690;2022-10-17T09:37:51;101189.67;;;19.54;63.90
43281;BME280;62175;49.416;8.690;2022-10-17T09:40:21;101198.80;;;19.24;64.31
43281;BME280;62175;49.416;8.690;2022-10-17T09:42:50;101208.31;;;19.26;64.65
43281;BME280;62175;49.416;8.690;2022-10-17T09:45:20;101204.00;;;19.65;64.30
43281;BME280;62175;49.416;8.690;2022-10-17T09:47:52;101207.02;;;19.75;64.57
43281;BME280;62175;49.416;8.690;2022-10-17T09:50:25;101199.39;;;19.47;65.04
43281;BME280;62175;49.416;8.690;2022-10-17T09:52:53;101195.55;;;19.22;64.75
43281;BME280;62175;49.416;8.690;2022-10-17T09:55:25;101197.51;;;19.72;64.62
43281;BME280;62175;49.416;8.690;2022-10-17T09:57:58;101198.69;;;19.74;64.56
43281;BME280;62175;49.416;8.690;2022-10-17T10:00:27;101198.93;;;19.25;64.68
43281;BME280;62175;49.416;8.690;2022-10-17T10:03:14;101201.72;;;19.59;65.00
43281;BME280;62175;49.416;8.690;2022-10-17T10:05:57;101203.10;;;19.56;65.16
43281;BME280;62175;49.416;8.690;2022-10-17T10:08:28;101205.86;;;19.77;64.97
43281;BME280;62175;49.416;8.690;2022-10-17T10:10:59;101215.45;;;19.23;65.24
43281;BME280;62175;49.416;8.690;2022-10-17T10:13:27;101214.30;;;19.82;65.27
43281;BME280;62175;49.416;8.690;2022-10-17T10:16:13;101212.21;;;19.85;65.09
43281;BME280;62175;49.416;8.690;2022-10-17T10:18:41;101219.88;;;19.49;65.36
43281;BME280;62175;49.416;8.690;2022-10-17T10:21:12;101222.34;;;19.71;65.39
43281;BME280;62175;49.416;8.690;2022-10-17T10:23:41;101224.78;;;19.65;65.56
43281;BME280;62175;49.416;8.690;2022-10-17T10:26:19;101226.11;;;19.71;65.45
43281;BME280;62175;49.416;8.690;2022-10-17T10:28:52;101232.63;;;19.31;65.67
43281;BME280;62175;49.416;8.690;2022-10-17T10:31:27;101230.15;;;19.67;64.58
43281;BME280;62175;49.416;8.690;2022-10-17T10:33:55;101230.41;;;19.29;64.05
43281;BME280;62175;49.416;8.690;2022-10-17T10:36:23;101230.46;;;19.45;64.17
43281;BME280;62175;49.416;8.690;2022-10-17T10:38:53;101225.62;;;19.52;63.25
43281;BME280;62175;49.416;8.690;2022-10-17T10:41:22;101222.54;;;19.59;63.16
43281;BME280;62175;49.416;8.690;2022-10-17T10:43:51;101217.52;;;19.83;63.84
43281;BME280;62175;49.416;8.690;2022-10-17T10:46:23;101215.17;;;19.53;63.81
43281;BME280;62175;49.416;8.690;2022-10-17T10:48:53;101220.45;;;19.77;63.64
43281;BME280;62175;49.416;8.690;2022-10-17T10:51:23;101222.74;;;19.42;64.05
43281;BME280;62175;49.416;8.690;2022-10-17T10:53:57;101222.98;;;19.52;63.04
43281;BME280;62175;49.416;8.690;2022-10-17T10:56:28;101219.03;;;19.55;63.65
43281;BME280;62175;49.416;8.690;2022-10-17T10:59:00;101220.75;;;20.05;63.66
43281;BME280;62175;49.416;8.690;2022-10-17T11:01:34;101219.95;;;19.57;63.01
43281;BME280;62175;49.416;8.690;2022-10-17T11:04:18;101222.34;;;19.64;62.96
43281;BME280;62175;49.416;8.690;2022-10-17T11:06:51;101222.18;;;19.71;62.94
43281;BME280;62175;49.416;8.690;2022-10-17T11:09:27;101218.40;;;19.67;63.53
43281;BME280;62175;49.416;8.690;2022-10-17T11:12:00;101217.54;;;19.61;63.47
43281;BME280;62175;49.416;8.690;2022-10-17T11:14:39;101217.41;;;19.73;63.29
43281;BME280;62175;49.416;8.690;2022-10-17T11:17:15;101214.81;;;19.81;64.05
43281;BME280;62175;49.416;8.690;2022-10-17T11:19:47;101215.76;;;19.81;63.47
43281;BME280;62175;49.416;8.690;2022-10-17T11:22:20;101215.01;;;20.13;62.51
43281;BME280;62175;49.416;8.690;2022-10-17T11:24:53;101219.44;;;20.09;62.61
43281;BME280;62175;49.416;8.690;2022-10-17T11:27:23;101220.38;;;20.13;63.16
43281;BME280;62175;49.416;8.690;2022-10-17T11:29:52;101227.71;;;20.14;62.85
43281;BME280;62175;49.416;8.690;2022-10-17T11:32:25;101232.34;;;20.13;63.54
43281;BME280;62175;49.416;8.690;2022-10-17T11:35:01;101234.15;;;20.33;63.37
43281;BME280;62175;49.416;8.690;2022-10-17T11:37:33;101233.89;;;20.14;62.65
43281;BME280;62175;49.416;8.690;2022-10-17T11:40:04;101237.64;;;20.16;63.53
43281;BME280;62175;49.416;8.690;2022-10-17T11:42:37;101235.62;;;20.10;63.98
43281;BME280;62175;49.416;8.690;2022-10-17T11:45:10;101231.72;;;20.12;64.29
43281;BME280;62175;49.416;8.690;2022-10-17T11:47:44;101227.83;;;20.30;63.75
43281;BME280;62175;49.416;8.690;2022-10-17T11:50:22;101228.28;;;20.11;64.49
43281;BME280;62175;49.416;8.690;2022-10-17T11:52:55;101232.36;;;20.08;64.89
43281;BME280;62175;49.416;8.690;2022-10-17T11:55:26;101226.53;;;20.21;63.32
43281;BME280;62175;49.416;8.690;2022-10-17T11:58:03;101226.42;;;20.44;62.61
43281;BME280;62175;49.416;8.690;2022-10-17T12:00:41;101226.34;;;20.37;63.11
43281;BME280;62175;49.416;8.690;2022-10-17T12:03:22;101230.55;;;20.17;63.18
43281;BME280;62175;49.416;8.690;2022-10-17T12:05:56;101232.78;;;20.30;63.02
43281;BME280;62175;49.416;8.690;2022-10-17T12:08:29;101228.55;;;20.60;61.74
43281;BME280;62175;49.416;8.690;2022-10-17T12:11:01;101233.26;;;20.53;62.84
43281;BME280;62175;49.416;8.690;2022-10-17T12:13:48;101231.42;;;20.49;62.11
43281;BME280;62175;49.416;8.690;2022-10-17T12:21:53;101225.62;;;20.86;62.15
43281;BME280;62175;49.416;8.690;2022-10-17T12:24:31;101224.50;;;20.29;62.77
43281;BME280;62175;49.416;8.690;2022-10-17T12:27:22;101222.98;;;20.08;63.21
43281;BME280;62175;49.416;8.690;2022-10-17T12:29:58;101220.19;;;20.46;62.97
43281;BME280;62175;49.416;8.690;2022-10-17T12:32:25;101222.64;;;20.59;61.91
43281;BME280;62175;49.416;8.690;2022-10-17T12:34:52;101221.55;;;20.72;61.25
43281;BME280;62175;49.416;8.690;2022-10-17T12:38:26;101226.45;;;20.54;61.48
43281;BME280;62175;49.416;8.690;2022-10-17T12:40:56;101220.63;;;20.50;61.51
43281;BME280;62175;49.416;8.690;2022-10-17T12:43:50;101222.41;;;21.01;60.83
43281;BME280;62175;49.416;8.690;2022-10-17T12:46:50;101219.25;;;20.57;59.29
43281;BME280;62175;49.416;8.690;2022-10-17T12:49:52;101223.49;;;20.74;59.99
43281;BME280;62175;49.416;8.690;2022-10-17T12:52:23;101213.51;;;21.23;59.06
43281;BME280;62175;49.416;8.690;2022-10-17T12:54:56;101213.86;;;20.53;60.65
43281;BME280;62175;49.416;8.690;2022-10-17T12:57:29;101216.32;;;20.68;59.75
43281;BME280;62175;49.416;8.690;2022-10-17T13:00:01;101213.01;;;20.67;60.44
43281;BME280;62175;49.416;8.690;2022-10-17T13:02:30;101217.25;;;20.55;60.07
43281;BME280;62175;49.416;8.690;2022-10-17T13:05:06;101209.99;;;20.73;60.78
43281;BME280;62175;49.416;8.690;2022-10-17T13:07:35;101213.31;;;20.54;60.15
43281;BME280;62175;49.416;8.690;2022-10-17T13:10:03;101210.50;;;20.24;61.08
43281;BME280;62175;49.416;8.690;2022-10-17T13:12:34;101205.81;;;20.33;61.19
43281;BME280;62175;49.416;8.690;2022-10-17T13:15:05;101207.46;;;20.45;61.39
43281;BME280;62175;49.416;8.690;2022-10-17T13:17:32;101201.80;;;20.78;60.93
43281;BME280;62175;49.416;8.690;2022-10-17T13:19:59;101199.00;;;20.49;61.88